John Wayne Airport-Orange County Airport
KSNA : rendu visible

Aérodrome :











RETROUVEZ-NOUS SUR...

 
LOGIN :

S'inscrire | Disclaimer

   EN    FR    IT 

 









Légende :    VFR   VFR Marginal   IFR   IFR Intensif   IFR Très Intensif
Visi : 
Plafond : 
>= 8 km
>= 3000ft
5 à 8 km
1000 à 3000 ft
1500m à 5 km
500 à 1000 ft
800 à 1500m
200 à 500 ft
< 800m
< 200 ft
Symboles :   Orages  Brouillard  Fortes neiges  Fortes précipitations  Vent > 20 kt






- Altitude de l'aérodrome : 56 ft
- Code IATA : SNA


KSNA - John Wayne -Orange County

DERNIER METAR :
  • 261653Z VRB03KT 10SM FEW013 22/14 A2990 RMK AO2 SLP124 T02170144

METARs EXPIRÉS :
  • 261553Z 00000KT 9SM CLR 20/14 A2990 RMK AO2 SLP124 T02000144
  • 261524Z 09003KT 9SM SCT011 19/14 A2990 RMK AO2 T01940144
  • 261453Z 00000KT 8SM BKN011 19/14 A2990 RMK AO2 SLP124 T01890144 53007

TAF KSNA
Valide du 26 à 18h jusqu'au 27 à 18h UTC


261731Z 2618/2718 23008KT P6SM SKC
FM270400 22005KT P6SM SCT007
FM270700 VRB05KT 6SM BR BKN012
FM270900 VRB03KT 4SM BR BKN007
FM271500 VRB03KT P6SM BKN012
FM271600 23005KT P6SM SKC
FIR KZLA / Amérique du Nord



MET'MAP, la Météo Aéronautique d'un coup d'oeil ! - Copyright ORBIFLY Décembre 2007 - Disclaimer

ORBIFLY MET'MAP TEAM :

Programmation & Développement : Alexandra Zaïnal
Sur une idée originale de : Baudouin d'Aumeries
Assistance à la programmation : Marc-Olivier Méhu
Soutien technique & logistique : Manuel Goepfert

Contact : metmap@orbifly.com




SOURCES & CREDITS :

   NOAA       Earth
Advisory